地図

経路データ

SID SEASON NUMBER BASIN SUBBASIN NAME ISO_TIME NATURE LAT LON WMO_WIND WMO_PRES WMO_AGENCY TRACK_TYPE DIST2LAND LANDFALL IFLAG USA_AGENCY USA_ATCF_ID USA_LAT USA_LON USA_RECORD USA_STATUS USA_WIND USA_PRES USA_SSHS USA_R34_NE USA_R34_SE USA_R34_SW USA_R34_NW USA_R50_NE USA_R50_SE USA_R50_SW USA_R50_NW USA_R64_NE USA_R64_SE USA_R64_SW USA_R64_NW USA_POCI USA_ROCI USA_RMW USA_EYE TOKYO_LAT TOKYO_LON TOKYO_GRADE TOKYO_WIND TOKYO_PRES TOKYO_R50_DIR TOKYO_R50_LONG TOKYO_R50_SHORT TOKYO_R30_DIR TOKYO_R30_LONG TOKYO_R30_SHORT TOKYO_LAND CMA_LAT CMA_LON CMA_CAT CMA_WIND CMA_PRES HKO_LAT HKO_LON HKO_CAT HKO_WIND HKO_PRES NEWDELHI_LAT NEWDELHI_LON NEWDELHI_GRADE NEWDELHI_WIND NEWDELHI_PRES NEWDELHI_CI NEWDELHI_DP NEWDELHI_POCI REUNION_LAT REUNION_LON REUNION_TYPE REUNION_WIND REUNION_PRES REUNION_TNUM REUNION_CI REUNION_RMW REUNION_R34_NE REUNION_R34_SE REUNION_R34_SW REUNION_R34_NW REUNION_R50_NE REUNION_R50_SE REUNION_R50_SW REUNION_R50_NW REUNION_R64_NE REUNION_R64_SE REUNION_R64_SW REUNION_R64_NW BOM_LAT BOM_LON BOM_TYPE BOM_WIND BOM_PRES BOM_TNUM BOM_CI BOM_RMW BOM_R34_NE BOM_R34_SE BOM_R34_SW BOM_R34_NW BOM_R50_NE BOM_R50_SE BOM_R50_SW BOM_R50_NW BOM_R64_NE BOM_R64_SE BOM_R64_SW BOM_R64_NW BOM_ROCI BOM_POCI BOM_EYE BOM_POS_METHOD BOM_PRES_METHOD NADI_LAT NADI_LON NADI_CAT NADI_WIND NADI_PRES WELLINGTON_LAT WELLINGTON_LON WELLINGTON_WIND WELLINGTON_PRES DS824_LAT DS824_LON DS824_STAGE DS824_WIND DS824_PRES TD9636_LAT TD9636_LON TD9636_STAGE TD9636_WIND TD9636_PRES TD9635_LAT TD9635_LON TD9635_WIND TD9635_PRES TD9635_ROCI NEUMANN_LAT NEUMANN_LON NEUMANN_CLASS NEUMANN_WIND NEUMANN_PRES MLC_LAT MLC_LON MLC_CLASS MLC_WIND MLC_PRES USA_GUST BOM_GUST BOM_GUST_PER REUNION_GUST REUNION_GUST_PER USA_SEAHGT USA_SEARAD_NE USA_SEARAD_SE USA_SEARAD_SW USA_SEARAD_NW STORM_SPEED STORM_DIR
1989176N27264 1989 50 NA GM ALLISON 1989-06-24 18:00:00 TS 27.0000 -96.0000 30 1008 hurdat_atl main 139 139 O_____________ hurdat_atl AL021989 27.0000 -96.0000 TD 30 1008 -1 0 0
1989176N27264 1989 50 NA GM ALLISON 1989-06-24 21:00:00 TS 26.9800 -95.9975 main 139 139 P_____________ AL021989 26.9800 -95.9975 TD 30 1007 -1 0 0
1989176N27264 1989 50 NA GM ALLISON 1989-06-25 00:00:00 TS 27.0000 -96.0000 30 1006 hurdat_atl main 139 135 O_____________ hurdat_atl AL021989 27.0000 -96.0000 TD 30 1006 -1 1 0
1989176N27264 1989 50 NA GM ALLISON 1989-06-25 03:00:00 TS 27.0850 -96.0075 main 135 132 P_____________ AL021989 27.0850 -96.0075 TD 30 1005 -1 2 8
1989176N27264 1989 50 NA GM ALLISON 1989-06-25 06:00:00 TS 27.2000 -96.0000 30 1005 hurdat_atl main 132 125 O_____________ hurdat_atl AL021989 27.2000 -96.0000 TD 30 1005 -1 2 13
1989176N27264 1989 50 NA GM ALLISON 1989-06-25 09:00:00 TS 27.3000 -95.9575 main 125 121 P_____________ AL021989 27.3000 -95.9575 TD 30 1005 -1 2 25
1989176N27264 1989 50 NA GM ALLISON 1989-06-25 12:00:00 TS 27.4000 -95.9000 30 1005 hurdat_atl main 121 111 O_____________ hurdat_atl AL021989 27.4000 -95.9000 TD 30 1005 -1 2 28
1989176N27264 1989 50 NA GM ALLISON 1989-06-25 15:00:00 TS 27.5000 -95.8425 main 116 106 P_____________ AL021989 27.5000 -95.8425 TD 30 1005 -1 2 25
1989176N27264 1989 50 NA GM ALLISON 1989-06-25 18:00:00 TS 27.6000 -95.8000 30 1005 hurdat_atl main 106 97 O_____________ hurdat_atl AL021989 27.6000 -95.8000 TD 30 1005 -1 2 13
1989176N27264 1989 50 NA GM ALLISON 1989-06-25 21:00:00 TS 27.6925 -95.7925 main 97 87 P_____________ AL021989 27.6925 -95.7925 TD 32 1004 -1 2 8
1989176N27264 1989 50 NA GM ALLISON 1989-06-26 00:00:00 TS 27.8000 -95.8000 35 1004 hurdat_atl main 87 77 O_____________ hurdat_atl AL021989 27.8000 -95.8000 TS 35 1004 0 2 0
1989176N27264 1989 50 NA GM ALLISON 1989-06-26 03:00:00 TS 27.9275 -95.8075 main 77 59 P_____________ AL021989 27.9275 -95.8075 TS 35 1004 0 3 0
1989176N27264 1989 50 NA GM ALLISON 1989-06-26 06:00:00 TS 28.1000 -95.8000 35 1004 hurdat_atl main 59 38 O_____________ hurdat_atl AL021989 28.1000 -95.8000 TS 35 1004 0 4 9
1989176N27264 1989 50 NA GM ALLISON 1989-06-26 09:00:00 TS 28.3245 -95.7426 main 44 22 P_____________ AL021989 28.3245 -95.7426 TS 37 1003 0 5 10
1989176N27264 1989 50 NA GM ALLISON 1989-06-26 12:00:00 TS 28.6000 -95.7000 40 1003 hurdat_atl main 22 11 O_____________ hurdat_atl AL021989 28.6000 -95.7000 TS 40 1003 0 6 6
1989176N27264 1989 50 NA GM ALLISON 1989-06-26 13:00:00 TS 28.7000 -95.7000 40 1002 hurdat_atl main 11 0 O_____________ hurdat_atl AL021989 28.7000 -95.7000 L TS 40 1002 0 5 0
1989176N27264 1989 50 NA NA ALLISON 1989-06-26 15:00:00 TS 28.8697 -95.7000 main 0 0 P_____________ AL021989 28.8697 -95.7000 TS 41 1001 0 5 0
1989176N27264 1989 50 NA NA ALLISON 1989-06-26 18:00:00 TS 29.1000 -95.7000 45 1001 hurdat_atl main 0 0 O_____________ hurdat_atl AL021989 29.1000 -95.7000 TS 45 1001 0 5 358
1989176N27264 1989 50 NA NA ALLISON 1989-06-26 21:00:00 TS 29.3974 -95.7290 main 0 0 P_____________ AL021989 29.3974 -95.7290 TS 45 1000 0 6 1
1989176N27264 1989 50 NA NA ALLISON 1989-06-27 00:00:00 TS 29.7000 -95.7000 45 999 hurdat_atl main 0 0 O_____________ hurdat_atl AL021989 29.7000 -95.7000 TS 45 999 0 6 17
1989176N27264 1989 50 NA NA ALLISON 1989-06-27 03:00:00 TS 29.9651 -95.5302 main 0 0 P_____________ AL021989 29.9651 -95.5302 TS 40 999 0 6 35
1989176N27264 1989 50 NA NA ALLISON 1989-06-27 06:00:00 TS 30.2000 -95.3000 35 1000 hurdat_atl main 0 0 O_____________ hurdat_atl AL021989 30.2000 -95.3000 TS 35 1000 0 6 40
1989176N27264 1989 50 NA NA ALLISON 1989-06-27 09:00:00 TS 30.4150 -95.0925 main 0 0 P_____________ AL021989 30.4150 -95.0925 TS 32 1001 -1 5 41
1989176N27264 1989 50 NA NA ALLISON 1989-06-27 12:00:00 TS 30.6000 -94.9000 30 1002 hurdat_atl main 0 0 O_____________ hurdat_atl AL021989 30.6000 -94.9000 TD 30 1002 -1 5 40
1989176N27264 1989 50 NA NA ALLISON 1989-06-27 15:00:00 TS 30.7649 -94.7499 main 0 0 P_____________ AL021989 30.7649 -94.7499 TD 30 1003 -1 4 40
1989176N27264 1989 50 NA NA ALLISON 1989-06-27 18:00:00 TS 30.9000 -94.6000 30 1004 hurdat_atl main 0 0 O_____________ hurdat_atl AL021989 30.9000 -94.6000 TD 30 1004 -1 4 49
1989176N27264 1989 50 NA NA ALLISON 1989-06-27 21:00:00 TS 31.0225 -94.4000 main 0 0 P_____________ AL021989 31.0225 -94.4000 TD 30 1004 -1 4 60
1989176N27264 1989 50 NA NA ALLISON 1989-06-28 00:00:00 ET 31.1000 -94.2000 30 1004 hurdat_atl main 0 0 O_____________ hurdat_atl AL021989 31.1000 -94.2000 EX 30 1004 -4 3 72
1989176N27264 1989 50 NA NA ALLISON 1989-06-28 03:00:00 ET 31.1225 -94.0349 main 0 0 P_____________ AL021989 31.1225 -94.0349 EX 30 1004 -4 3 90
1989176N27264 1989 50 NA NA ALLISON 1989-06-28 06:00:00 ET 31.1000 -93.9000 30 1005 hurdat_atl main 0 0 O_____________ hurdat_atl AL021989 31.1000 -93.9000 EX 30 1005 -4 2 101
1989176N27264 1989 50 NA NA ALLISON 1989-06-28 09:00:00 ET 31.0800 -93.7700 main 0 0 P_____________ AL021989 31.0800 -93.7700 EX 30 1005 -4 2 120
1989176N27264 1989 50 NA NA ALLISON 1989-06-28 12:00:00 ET 31.0000 -93.7000 30 1006 hurdat_atl main 0 0 O_____________ hurdat_atl AL021989 31.0000 -93.7000 EX 30 1006 -4 3 169
1989176N27264 1989 50 NA NA ALLISON 1989-06-28 15:00:00 ET 30.7999 -93.7051 main 0 0 P_____________ AL021989 30.7999 -93.7051 EX 27 1006 -4 4 192
1989176N27264 1989 50 NA NA ALLISON 1989-06-28 18:00:00 ET 30.6000 -93.8000 25 1007 hurdat_atl main 0 0 O_____________ hurdat_atl AL021989 30.6000 -93.8000 EX 25 1007 -4 4 222
1989176N27264 1989 50 NA NA ALLISON 1989-06-28 21:00:00 ET 30.5350 -93.9774 main 0 0 P_____________ AL021989 30.5350 -93.9774 EX 25 1007 -4 4 254
1989176N27264 1989 50 NA NA ALLISON 1989-06-29 00:00:00 ET 30.5000 -94.2000 25 1008 hurdat_atl main 0 0 O_____________ hurdat_atl AL021989 30.5000 -94.2000 EX 25 1008 -4 4 251
1989176N27264 1989 50 NA NA ALLISON 1989-06-29 03:00:00 ET 30.4075 -94.4000 main 0 0 P_____________ AL021989 30.4075 -94.4000 EX 25 1008 -4 4 240
1989176N27264 1989 50 NA NA ALLISON 1989-06-29 06:00:00 ET 30.3000 -94.6000 25 1008 hurdat_atl main 0 0 O_____________ hurdat_atl AL021989 30.3000 -94.6000 EX 25 1008 -4 4 241
1989176N27264 1989 50 NA NA ALLISON 1989-06-29 09:00:00 ET 30.2075 -94.8150 main 0 0 P_____________ AL021989 30.2075 -94.8150 EX 25 1008 -4 4 240
1989176N27264 1989 50 NA NA ALLISON 1989-06-29 12:00:00 ET 30.1000 -95.0000 25 1008 hurdat_atl main 0 0 O_____________ hurdat_atl AL021989 30.1000 -95.0000 EX 25 1008 -4 4 226
1989176N27264 1989 50 NA NA ALLISON 1989-06-29 15:00:00 ET 29.9500 -95.1225 main 0 0 P_____________ AL021989 29.9500 -95.1225 EX 25 1008 -4 3 210
1989176N27264 1989 50 NA NA ALLISON 1989-06-29 18:00:00 ET 29.8000 -95.2000 25 1008 hurdat_atl main 0 0 O_____________ hurdat_atl AL021989 29.8000 -95.2000 EX 25 1008 -4 3 199
1989176N27264 1989 50 NA NA ALLISON 1989-06-29 21:00:00 ET 29.6699 -95.2350 main 0 0 P_____________ AL021989 29.6699 -95.2350 EX 22 1008 -4 2 205
1989176N27264 1989 50 NA NA ALLISON 1989-06-30 00:00:00 ET 29.6000 -95.3000 20 1009 hurdat_atl main 0 0 O_____________ hurdat_atl AL021989 29.6000 -95.3000 EX 20 1009 -4 3 250
1989176N27264 1989 50 NA NA ALLISON 1989-06-30 03:00:00 ET 29.5826 -95.5075 main 0 0 P_____________ AL021989 29.5826 -95.5075 EX 20 1009 -4 4 286
1989176N27264 1989 50 NA NA ALLISON 1989-06-30 06:00:00 ET 29.7000 -95.7000 20 1010 hurdat_atl main 0 0 O_____________ hurdat_atl AL021989 29.7000 -95.7000 EX 20 1010 -4 5 334
1989176N27264 1989 50 NA NA ALLISON 1989-06-30 09:00:00 ET 30.0049 -95.7450 main 0 0 P_____________ AL021989 30.0049 -95.7450 EX 20 1010 -4 7 0
1989176N27264 1989 50 NA NA ALLISON 1989-06-30 12:00:00 ET 30.4000 -95.7000 20 1011 hurdat_atl main 0 0 O_____________ hurdat_atl AL021989 30.4000 -95.7000 EX 20 1011 -4 8 8
1989176N27264 1989 50 NA NA ALLISON 1989-06-30 15:00:00 ET 30.7500 -95.6299 main 0 0 P_____________ AL021989 30.7500 -95.6299 EX 20 1010 -4 7 14
1989176N27264 1989 50 NA NA ALLISON 1989-06-30 18:00:00 ET 31.1000 -95.5000 20 1010 hurdat_atl main 0 0 O_____________ hurdat_atl AL021989 31.1000 -95.5000 EX 20 1010 -4 8 20
1989176N27264 1989 50 NA NA ALLISON 1989-06-30 21:00:00 ET 31.4649 -95.3300 main 0 0 P_____________ AL021989 31.4649 -95.3300 EX 20 1010 -4 8 26
1989176N27264 1989 50 NA NA ALLISON 1989-07-01 00:00:00 ET 31.8000 -95.1000 20 1010 hurdat_atl main 0 0 O_____________ hurdat_atl AL021989 31.8000 -95.1000 EX 20 1010 -4 7 36
1989176N27264 1989 50 NA NA ALLISON 1989-07-01 03:00:00 ET 32.0650 -94.8223 main 0 0 P_____________ AL021989 32.0650 -94.8223 EX 20 1010 -4 7 45
1989176N27264 1989 50 NA NA ALLISON 1989-07-01 06:00:00 ET 32.3000 -94.5000 20 1010 hurdat_atl main 0 0 O_____________ hurdat_atl AL021989 32.3000 -94.5000 EX 20 1010 -4 7 50
1989176N27264 1989 50 NA NA ALLISON 1989-07-01 09:00:00 ET 32.5452 -94.1555 main 0 0 P_____________ AL021989 32.5452 -94.1555 EX 20 1010 -4 8 50
1989176N27264 1989 50 NA NA ALLISON 1989-07-01 12:00:00 ET 32.8000 -93.8000 20 1010 hurdat_atl main 0 O_____________ hurdat_atl AL021989 32.8000 -93.8000 EX 20 1010 -4 8 49

IBTrACS Databaseについて

本データベースは、米国NOAAが公開する1842年以降の世界の熱帯低気圧のベストトラックデータアーカイブInternational Best Track Archive for Climate Stewardship (IBTrACS)を、ウェブで閲覧しやすい形式に変換したものです。

最終更新日:2021-10-25